<?xml version="1.0" encoding="UTF-8" standalone="no" ?>
<gpx xmlns="http://www.topografix.com/GPX/1/1" xmlns:xsi="http://www.w3.org/2001/XMLSchema-instance" xsi:schemaLocation="http://www.topografix.com/GPX/1/1 http://www.topografix.com/GPX/1/1/gpx.xsd" version="1.1" creator="VisuGPX - https://www.visugpx.com">
  <metadata>
    <name>Petit tour du côté de woustviller</name>
  </metadata>
  <wpt lat="49.07447" lon="6.99893">
    <ele>221</ele>
    <name><![CDATA[Parc courreurs]]></name>
    <desc><![CDATA[Terrain de Sport]]></desc>
    <cmt><![CDATA[Terrain de Sport]]></cmt>
  </wpt>
  <wpt lat="49.07456" lon="6.99941">
    <ele>222</ele>
    <name><![CDATA[Zone de comptage]]></name>
    <desc><![CDATA[Terrain de Sport]]></desc>
    <cmt><![CDATA[Terrain de Sport]]></cmt>
  </wpt>
  <trk>
    <name><![CDATA[ACTIVE LOG 001]]></name>
    <trkseg>
      <trkpt lat="49.07461" lon="6.999">
        <ele>296.2235107</ele>
        <time>2012-04-14T12:31:36Z</time>
      </trkpt>
      <trkpt lat="49.07465" lon="6.99898">
        <ele>283.7261963</ele>
        <time>2012-04-14T12:32:29Z</time>
      </trkpt>
      <trkpt lat="49.07466" lon="6.99897">
        <ele>281.8035889</ele>
        <time>2012-04-14T12:32:30Z</time>
      </trkpt>
      <trkpt lat="49.0747" lon="6.99894">
        <ele>275.5550537</ele>
        <time>2012-04-14T12:32:33Z</time>
      </trkpt>
      <trkpt lat="49.07471" lon="6.99891">
        <ele>271.229126</ele>
        <time>2012-04-14T12:32:36Z</time>
      </trkpt>
      <trkpt lat="49.07472" lon="6.9989">
        <ele>266.4224854</ele>
        <time>2012-04-14T12:32:39Z</time>
      </trkpt>
      <trkpt lat="49.07475" lon="6.99887">
        <ele>262.0965576</ele>
        <time>2012-04-14T12:32:42Z</time>
      </trkpt>
      <trkpt lat="49.07474" lon="6.99883">
        <ele>257.2900391</ele>
        <time>2012-04-14T12:32:46Z</time>
      </trkpt>
      <trkpt lat="49.07472" lon="6.99884">
        <ele>255.3673096</ele>
        <time>2012-04-14T12:32:48Z</time>
      </trkpt>
      <trkpt lat="49.07468" lon="6.99883">
        <ele>251.5220947</ele>
        <time>2012-04-14T12:32:52Z</time>
      </trkpt>
      <trkpt lat="49.07468" lon="6.99876">
        <ele>248.6381836</ele>
        <time>2012-04-14T12:32:54Z</time>
      </trkpt>
      <trkpt lat="49.07469" lon="6.99869">
        <ele>247.6767578</ele>
        <time>2012-04-14T12:32:56Z</time>
      </trkpt>
      <trkpt lat="49.07477" lon="6.99871">
        <ele>245.2734375</ele>
        <time>2012-04-14T12:33:00Z</time>
      </trkpt>
      <trkpt lat="49.07485" lon="6.99877">
        <ele>241.9089355</ele>
        <time>2012-04-14T12:33:03Z</time>
      </trkpt>
      <trkpt lat="49.07488" lon="6.99879">
        <ele>242.3896484</ele>
        <time>2012-04-14T12:33:04Z</time>
      </trkpt>
      <trkpt lat="49.07493" lon="6.99878">
        <ele>241.4282227</ele>
        <time>2012-04-14T12:33:06Z</time>
      </trkpt>
      <trkpt lat="49.075" lon="6.99863">
        <ele>238.0635986</ele>
        <time>2012-04-14T12:33:12Z</time>
      </trkpt>
      <trkpt lat="49.0751" lon="6.99864">
        <ele>236.6217041</ele>
        <time>2012-04-14T12:33:16Z</time>
      </trkpt>
      <trkpt lat="49.07544" lon="6.99864">
        <ele>235.6602783</ele>
        <time>2012-04-14T12:33:28Z</time>
      </trkpt>
      <trkpt lat="49.07547" lon="6.99848">
        <ele>234.6990967</ele>
        <time>2012-04-14T12:33:32Z</time>
      </trkpt>
      <trkpt lat="49.07547" lon="6.99785">
        <ele>230.8537598</ele>
        <time>2012-04-14T12:33:44Z</time>
      </trkpt>
      <trkpt lat="49.07547" lon="6.99654">
        <ele>228.9311523</ele>
        <time>2012-04-14T12:34:05Z</time>
      </trkpt>
      <trkpt lat="49.07562" lon="6.99513">
        <ele>227.0085449</ele>
        <time>2012-04-14T12:34:28Z</time>
      </trkpt>
      <trkpt lat="49.07567" lon="6.99484">
        <ele>227.0085449</ele>
        <time>2012-04-14T12:34:34Z</time>
      </trkpt>
      <trkpt lat="49.07581" lon="6.99474">
        <ele>227.0085449</ele>
        <time>2012-04-14T12:34:39Z</time>
      </trkpt>
      <trkpt lat="49.07597" lon="6.99472">
        <ele>229.892334</ele>
        <time>2012-04-14T12:34:47Z</time>
      </trkpt>
      <trkpt lat="49.0762" lon="6.99467">
        <ele>230.3730469</ele>
        <time>2012-04-14T12:34:59Z</time>
      </trkpt>
      <trkpt lat="49.07655" lon="6.9946">
        <ele>233.7376709</ele>
        <time>2012-04-14T12:35:12Z</time>
      </trkpt>
      <trkpt lat="49.07657" lon="6.9946">
        <ele>233.7376709</ele>
        <time>2012-04-14T12:35:13Z</time>
      </trkpt>
      <trkpt lat="49.07676" lon="6.99456">
        <ele>237.5828857</ele>
        <time>2012-04-14T12:35:21Z</time>
      </trkpt>
      <trkpt lat="49.07682" lon="6.99455">
        <ele>238.5443115</ele>
        <time>2012-04-14T12:35:24Z</time>
      </trkpt>
      <trkpt lat="49.07702" lon="6.99443">
        <ele>241.9089355</ele>
        <time>2012-04-14T12:35:37Z</time>
      </trkpt>
      <trkpt lat="49.07704" lon="6.99442">
        <ele>241.9089355</ele>
        <time>2012-04-14T12:35:51Z</time>
      </trkpt>
      <trkpt lat="49.07705" lon="6.99441">
        <ele>243.3508301</ele>
        <time>2012-04-14T12:37:54Z</time>
      </trkpt>
      <trkpt lat="49.07716" lon="6.99432">
        <ele>245.2734375</ele>
        <time>2012-04-14T12:38:11Z</time>
      </trkpt>
      <trkpt lat="49.07716" lon="6.9943">
        <ele>245.2734375</ele>
        <time>2012-04-14T12:38:12Z</time>
      </trkpt>
      <trkpt lat="49.07717" lon="6.99425">
        <ele>246.7154541</ele>
        <time>2012-04-14T12:38:15Z</time>
      </trkpt>
      <trkpt lat="49.07717" lon="6.99404">
        <ele>248.6381836</ele>
        <time>2012-04-14T12:38:34Z</time>
      </trkpt>
      <trkpt lat="49.07713" lon="6.99361">
        <ele>250.560791</ele>
        <time>2012-04-14T12:38:48Z</time>
      </trkpt>
      <trkpt lat="49.07703" lon="6.99292">
        <ele>252.0028076</ele>
        <time>2012-04-14T12:39:06Z</time>
      </trkpt>
      <trkpt lat="49.07689" lon="6.99208">
        <ele>251.0413818</ele>
        <time>2012-04-14T12:39:24Z</time>
      </trkpt>
      <trkpt lat="49.07685" lon="6.99156">
        <ele>252.0028076</ele>
        <time>2012-04-14T12:39:34Z</time>
      </trkpt>
      <trkpt lat="49.07688" lon="6.99134">
        <ele>252.9639893</ele>
        <time>2012-04-14T12:39:39Z</time>
      </trkpt>
      <trkpt lat="49.07682" lon="6.99054">
        <ele>253.925415</ele>
        <time>2012-04-14T12:39:56Z</time>
      </trkpt>
      <trkpt lat="49.07667" lon="6.98967">
        <ele>251.0413818</ele>
        <time>2012-04-14T12:40:13Z</time>
      </trkpt>
      <trkpt lat="49.07648" lon="6.98783">
        <ele>248.1575928</ele>
        <time>2012-04-14T12:40:42Z</time>
      </trkpt>
      <trkpt lat="49.07633" lon="6.98707">
        <ele>249.1187744</ele>
        <time>2012-04-14T12:40:58Z</time>
      </trkpt>
      <trkpt lat="49.07633" lon="6.98689">
        <ele>249.5994873</ele>
        <time>2012-04-14T12:41:03Z</time>
      </trkpt>
      <trkpt lat="49.07632" lon="6.98684">
        <ele>249.1187744</ele>
        <time>2012-04-14T12:41:04Z</time>
      </trkpt>
      <trkpt lat="49.07625" lon="6.98598">
        <ele>250.560791</ele>
        <time>2012-04-14T12:41:23Z</time>
      </trkpt>
      <trkpt lat="49.07621" lon="6.98546">
        <ele>249.1187744</ele>
        <time>2012-04-14T12:41:33Z</time>
      </trkpt>
      <trkpt lat="49.07622" lon="6.98507">
        <ele>249.5994873</ele>
        <time>2012-04-14T12:41:42Z</time>
      </trkpt>
      <trkpt lat="49.07622" lon="6.98474">
        <ele>247.6767578</ele>
        <time>2012-04-14T12:41:49Z</time>
      </trkpt>
      <trkpt lat="49.07609" lon="6.98431">
        <ele>248.1575928</ele>
        <time>2012-04-14T12:41:57Z</time>
      </trkpt>
      <trkpt lat="49.076" lon="6.98364">
        <ele>249.5994873</ele>
        <time>2012-04-14T12:42:11Z</time>
      </trkpt>
      <trkpt lat="49.07594" lon="6.98318">
        <ele>249.5994873</ele>
        <time>2012-04-14T12:42:21Z</time>
      </trkpt>
      <trkpt lat="49.07597" lon="6.9831">
        <ele>250.560791</ele>
        <time>2012-04-14T12:42:35Z</time>
      </trkpt>
      <trkpt lat="49.07606" lon="6.98292">
        <ele>250.0802002</ele>
        <time>2012-04-14T12:45:11Z</time>
      </trkpt>
      <trkpt lat="49.07601" lon="6.98291">
        <ele>250.560791</ele>
        <time>2012-04-14T12:45:50Z</time>
      </trkpt>
      <trkpt lat="49.07598" lon="6.98288">
        <ele>249.1187744</ele>
        <time>2012-04-14T12:46:00Z</time>
      </trkpt>
      <trkpt lat="49.07598" lon="6.98281">
        <ele>245.2734375</ele>
        <time>2012-04-14T12:46:04Z</time>
      </trkpt>
      <trkpt lat="49.07598" lon="6.98274">
        <ele>248.1575928</ele>
        <time>2012-04-14T12:46:05Z</time>
      </trkpt>
      <trkpt lat="49.07597" lon="6.98261">
        <ele>249.5994873</ele>
        <time>2012-04-14T12:46:08Z</time>
      </trkpt>
      <trkpt lat="49.07597" lon="6.98259">
        <ele>250.0802002</ele>
        <time>2012-04-14T12:46:09Z</time>
      </trkpt>
      <trkpt lat="49.07598" lon="6.98244">
        <ele>252.4833984</ele>
        <time>2012-04-14T12:46:15Z</time>
      </trkpt>
      <trkpt lat="49.07592" lon="6.98201">
        <ele>252.9639893</ele>
        <time>2012-04-14T12:46:30Z</time>
      </trkpt>
      <trkpt lat="49.07583" lon="6.98142">
        <ele>254.8865967</ele>
        <time>2012-04-14T12:46:45Z</time>
      </trkpt>
      <trkpt lat="49.07572" lon="6.98075">
        <ele>252.4833984</ele>
        <time>2012-04-14T12:46:59Z</time>
      </trkpt>
      <trkpt lat="49.07578" lon="6.98059">
        <ele>252.4833984</ele>
        <time>2012-04-14T12:47:04Z</time>
      </trkpt>
      <trkpt lat="49.07571" lon="6.9803">
        <ele>251.0413818</ele>
        <time>2012-04-14T12:47:11Z</time>
      </trkpt>
      <trkpt lat="49.07576" lon="6.98022">
        <ele>250.560791</ele>
        <time>2012-04-14T12:47:14Z</time>
      </trkpt>
      <trkpt lat="49.07587" lon="6.98022">
        <ele>252.4833984</ele>
        <time>2012-04-14T12:47:27Z</time>
      </trkpt>
      <trkpt lat="49.07597" lon="6.98008">
        <ele>252.0028076</ele>
        <time>2012-04-14T12:48:52Z</time>
      </trkpt>
      <trkpt lat="49.076" lon="6.97979">
        <ele>251.0413818</ele>
        <time>2012-04-14T12:49:01Z</time>
      </trkpt>
      <trkpt lat="49.07588" lon="6.9797">
        <ele>246.2348633</ele>
        <time>2012-04-14T12:49:06Z</time>
      </trkpt>
      <trkpt lat="49.07583" lon="6.97971">
        <ele>246.2348633</ele>
        <time>2012-04-14T12:49:07Z</time>
      </trkpt>
      <trkpt lat="49.07571" lon="6.9795">
        <ele>249.5994873</ele>
        <time>2012-04-14T12:49:13Z</time>
      </trkpt>
      <trkpt lat="49.07573" lon="6.97949">
        <ele>250.0802002</ele>
        <time>2012-04-14T12:49:14Z</time>
      </trkpt>
      <trkpt lat="49.07583" lon="6.97937">
        <ele>250.560791</ele>
        <time>2012-04-14T12:49:23Z</time>
      </trkpt>
      <trkpt lat="49.07594" lon="6.97896">
        <ele>253.925415</ele>
        <time>2012-04-14T12:49:39Z</time>
      </trkpt>
      <trkpt lat="49.07566" lon="6.97703">
        <ele>257.2900391</ele>
        <time>2012-04-14T12:50:37Z</time>
      </trkpt>
      <trkpt lat="49.07553" lon="6.97674">
        <ele>254.4060059</ele>
        <time>2012-04-14T12:50:44Z</time>
      </trkpt>
      <trkpt lat="49.07545" lon="6.97651">
        <ele>252.0028076</ele>
        <time>2012-04-14T12:50:49Z</time>
      </trkpt>
      <trkpt lat="49.07509" lon="6.9754">
        <ele>246.7154541</ele>
        <time>2012-04-14T12:51:06Z</time>
      </trkpt>
      <trkpt lat="49.07504" lon="6.97523">
        <ele>245.2734375</ele>
        <time>2012-04-14T12:51:08Z</time>
      </trkpt>
      <trkpt lat="49.07471" lon="6.97427">
        <ele>246.2348633</ele>
        <time>2012-04-14T12:51:24Z</time>
      </trkpt>
      <trkpt lat="49.0745" lon="6.97393">
        <ele>249.1187744</ele>
        <time>2012-04-14T12:51:35Z</time>
      </trkpt>
      <trkpt lat="49.07437" lon="6.97376">
        <ele>250.560791</ele>
        <time>2012-04-14T12:51:49Z</time>
      </trkpt>
      <trkpt lat="49.0742" lon="6.97349">
        <ele>251.5220947</ele>
        <time>2012-04-14T12:52:15Z</time>
      </trkpt>
      <trkpt lat="49.0741" lon="6.97312">
        <ele>253.925415</ele>
        <time>2012-04-14T12:52:32Z</time>
      </trkpt>
      <trkpt lat="49.07408" lon="6.97295">
        <ele>255.3673096</ele>
        <time>2012-04-14T12:52:41Z</time>
      </trkpt>
      <trkpt lat="49.07407" lon="6.97266">
        <ele>258.2513428</ele>
        <time>2012-04-14T12:52:58Z</time>
      </trkpt>
      <trkpt lat="49.07402" lon="6.97254">
        <ele>259.6933594</ele>
        <time>2012-04-14T12:53:16Z</time>
      </trkpt>
      <trkpt lat="49.07381" lon="6.97192">
        <ele>260.654541</ele>
        <time>2012-04-14T12:53:59Z</time>
      </trkpt>
      <trkpt lat="49.07365" lon="6.97156">
        <ele>260.1739502</ele>
        <time>2012-04-14T12:54:16Z</time>
      </trkpt>
      <trkpt lat="49.07361" lon="6.97153">
        <ele>260.654541</ele>
        <time>2012-04-14T12:54:24Z</time>
      </trkpt>
      <trkpt lat="49.07355" lon="6.9714">
        <ele>260.654541</ele>
        <time>2012-04-14T12:54:34Z</time>
      </trkpt>
      <trkpt lat="49.07353" lon="6.97138">
        <ele>260.1739502</ele>
        <time>2012-04-14T12:54:49Z</time>
      </trkpt>
      <trkpt lat="49.07343" lon="6.97122">
        <ele>259.6933594</ele>
        <time>2012-04-14T12:55:14Z</time>
      </trkpt>
      <trkpt lat="49.07333" lon="6.97099">
        <ele>258.7319336</ele>
        <time>2012-04-14T12:55:22Z</time>
      </trkpt>
      <trkpt lat="49.07331" lon="6.97088">
        <ele>258.7319336</ele>
        <time>2012-04-14T12:55:29Z</time>
      </trkpt>
      <trkpt lat="49.07333" lon="6.97034">
        <ele>259.6933594</ele>
        <time>2012-04-14T12:55:46Z</time>
      </trkpt>
      <trkpt lat="49.07344" lon="6.96985">
        <ele>260.654541</ele>
        <time>2012-04-14T12:56:02Z</time>
      </trkpt>
      <trkpt lat="49.07334" lon="6.96926">
        <ele>261.6159668</ele>
        <time>2012-04-14T12:56:23Z</time>
      </trkpt>
      <trkpt lat="49.07313" lon="6.96883">
        <ele>261.6159668</ele>
        <time>2012-04-14T12:56:40Z</time>
      </trkpt>
      <trkpt lat="49.07302" lon="6.96842">
        <ele>262.5771484</ele>
        <time>2012-04-14T12:56:59Z</time>
      </trkpt>
      <trkpt lat="49.07297" lon="6.96793">
        <ele>264.0192871</ele>
        <time>2012-04-14T12:57:18Z</time>
      </trkpt>
      <trkpt lat="49.0731" lon="6.96751">
        <ele>266.4224854</ele>
        <time>2012-04-14T12:57:39Z</time>
      </trkpt>
      <trkpt lat="49.07312" lon="6.96745">
        <ele>266.4224854</ele>
        <time>2012-04-14T12:57:43Z</time>
      </trkpt>
      <trkpt lat="49.07297" lon="6.96736">
        <ele>264.9805908</ele>
        <time>2012-04-14T12:57:52Z</time>
      </trkpt>
      <trkpt lat="49.07274" lon="6.96714">
        <ele>263.5385742</ele>
        <time>2012-04-14T12:58:07Z</time>
      </trkpt>
      <trkpt lat="49.07271" lon="6.96664">
        <ele>264.4998779</ele>
        <time>2012-04-14T12:58:23Z</time>
      </trkpt>
      <trkpt lat="49.07267" lon="6.96618">
        <ele>266.4224854</ele>
        <time>2012-04-14T12:58:33Z</time>
      </trkpt>
      <trkpt lat="49.07255" lon="6.96542">
        <ele>267.864502</ele>
        <time>2012-04-14T12:58:50Z</time>
      </trkpt>
      <trkpt lat="49.0723" lon="6.9647">
        <ele>265.9418945</ele>
        <time>2012-04-14T12:59:05Z</time>
      </trkpt>
      <trkpt lat="49.07204" lon="6.96397">
        <ele>265.9418945</ele>
        <time>2012-04-14T12:59:22Z</time>
      </trkpt>
      <trkpt lat="49.07201" lon="6.96382">
        <ele>265.9418945</ele>
        <time>2012-04-14T12:59:32Z</time>
      </trkpt>
      <trkpt lat="49.07198" lon="6.96352">
        <ele>267.864502</ele>
        <time>2012-04-14T13:02:18Z</time>
      </trkpt>
      <trkpt lat="49.07198" lon="6.96349">
        <ele>267.864502</ele>
        <time>2012-04-14T13:02:20Z</time>
      </trkpt>
      <trkpt lat="49.07197" lon="6.96344">
        <ele>268.3450928</ele>
        <time>2012-04-14T13:02:33Z</time>
      </trkpt>
      <trkpt lat="49.07175" lon="6.96316">
        <ele>267.864502</ele>
        <time>2012-04-14T13:02:48Z</time>
      </trkpt>
      <trkpt lat="49.07137" lon="6.96272">
        <ele>267.864502</ele>
        <time>2012-04-14T13:03:06Z</time>
      </trkpt>
      <trkpt lat="49.07135" lon="6.9626">
        <ele>267.3839111</ele>
        <time>2012-04-14T13:03:13Z</time>
      </trkpt>
      <trkpt lat="49.07131" lon="6.96262">
        <ele>268.8258057</ele>
        <time>2012-04-14T13:04:49Z</time>
      </trkpt>
      <trkpt lat="49.07125" lon="6.96253">
        <ele>269.3065186</ele>
        <time>2012-04-14T13:05:02Z</time>
      </trkpt>
      <trkpt lat="49.07119" lon="6.9625">
        <ele>268.8258057</ele>
        <time>2012-04-14T13:05:17Z</time>
      </trkpt>
      <trkpt lat="49.07115" lon="6.9625">
        <ele>268.8258057</ele>
        <time>2012-04-14T13:05:29Z</time>
      </trkpt>
      <trkpt lat="49.07102" lon="6.96247">
        <ele>267.3839111</ele>
        <time>2012-04-14T13:06:15Z</time>
      </trkpt>
      <trkpt lat="49.07072" lon="6.96215">
        <ele>267.3839111</ele>
        <time>2012-04-14T13:06:33Z</time>
      </trkpt>
      <trkpt lat="49.07063" lon="6.96208">
        <ele>267.3839111</ele>
        <time>2012-04-14T13:06:46Z</time>
      </trkpt>
      <trkpt lat="49.07055" lon="6.96195">
        <ele>267.3839111</ele>
        <time>2012-04-14T13:06:58Z</time>
      </trkpt>
      <trkpt lat="49.07037" lon="6.9617">
        <ele>267.864502</ele>
        <time>2012-04-14T13:07:13Z</time>
      </trkpt>
      <trkpt lat="49.07024" lon="6.96154">
        <ele>268.3450928</ele>
        <time>2012-04-14T13:07:28Z</time>
      </trkpt>
      <trkpt lat="49.07007" lon="6.96141">
        <ele>268.8258057</ele>
        <time>2012-04-14T13:08:26Z</time>
      </trkpt>
      <trkpt lat="49.06969" lon="6.96097">
        <ele>267.3839111</ele>
        <time>2012-04-14T13:08:47Z</time>
      </trkpt>
      <trkpt lat="49.06967" lon="6.96092">
        <ele>267.864502</ele>
        <time>2012-04-14T13:09:05Z</time>
      </trkpt>
      <trkpt lat="49.06962" lon="6.96079">
        <ele>268.3450928</ele>
        <time>2012-04-14T13:09:24Z</time>
      </trkpt>
      <trkpt lat="49.06936" lon="6.96054">
        <ele>268.3450928</ele>
        <time>2012-04-14T13:09:40Z</time>
      </trkpt>
      <trkpt lat="49.06889" lon="6.96024">
        <ele>267.864502</ele>
        <time>2012-04-14T13:09:56Z</time>
      </trkpt>
      <trkpt lat="49.06853" lon="6.95981">
        <ele>269.3065186</ele>
        <time>2012-04-14T13:10:11Z</time>
      </trkpt>
      <trkpt lat="49.06855" lon="6.9594">
        <ele>270.7484131</ele>
        <time>2012-04-14T13:10:26Z</time>
      </trkpt>
      <trkpt lat="49.06888" lon="6.95909">
        <ele>271.229126</ele>
        <time>2012-04-14T13:10:46Z</time>
      </trkpt>
      <trkpt lat="49.06923" lon="6.959">
        <ele>271.229126</ele>
        <time>2012-04-14T13:11:07Z</time>
      </trkpt>
      <trkpt lat="49.06925" lon="6.95897">
        <ele>270.2677002</ele>
        <time>2012-04-14T13:11:13Z</time>
      </trkpt>
      <trkpt lat="49.06957" lon="6.95842">
        <ele>274.59375</ele>
        <time>2012-04-14T13:33:34Z</time>
      </trkpt>
      <trkpt lat="49.07007" lon="6.95766">
        <ele>269.7871094</ele>
        <time>2012-04-14T13:34:03Z</time>
      </trkpt>
      <trkpt lat="49.0701" lon="6.95762">
        <ele>268.8258057</ele>
        <time>2012-04-14T13:34:23Z</time>
      </trkpt>
      <trkpt lat="49.07021" lon="6.95759">
        <ele>270.2677002</ele>
        <time>2012-04-14T13:35:30Z</time>
      </trkpt>
      <trkpt lat="49.07045" lon="6.95805">
        <ele>268.3450928</ele>
        <time>2012-04-14T13:35:59Z</time>
      </trkpt>
      <trkpt lat="49.0705" lon="6.95835">
        <ele>270.2677002</ele>
        <time>2012-04-14T13:36:17Z</time>
      </trkpt>
      <trkpt lat="49.07066" lon="6.95884">
        <ele>271.7097168</ele>
        <time>2012-04-14T13:36:36Z</time>
      </trkpt>
      <trkpt lat="49.07086" lon="6.9592">
        <ele>269.7871094</ele>
        <time>2012-04-14T13:36:52Z</time>
      </trkpt>
      <trkpt lat="49.07121" lon="6.95955">
        <ele>268.8258057</ele>
        <time>2012-04-14T13:37:09Z</time>
      </trkpt>
      <trkpt lat="49.07135" lon="6.95972">
        <ele>268.8258057</ele>
        <time>2012-04-14T13:37:30Z</time>
      </trkpt>
      <trkpt lat="49.07149" lon="6.9597">
        <ele>268.3450928</ele>
        <time>2012-04-14T13:37:39Z</time>
      </trkpt>
      <trkpt lat="49.07144" lon="6.95951">
        <ele>265.9418945</ele>
        <time>2012-04-14T13:37:51Z</time>
      </trkpt>
      <trkpt lat="49.07154" lon="6.95944">
        <ele>265.4613037</ele>
        <time>2012-04-14T13:37:57Z</time>
      </trkpt>
      <trkpt lat="49.07158" lon="6.95947">
        <ele>264.9805908</ele>
        <time>2012-04-14T13:38:00Z</time>
      </trkpt>
      <trkpt lat="49.07189" lon="6.95963">
        <ele>266.9031982</ele>
        <time>2012-04-14T13:38:17Z</time>
      </trkpt>
      <trkpt lat="49.07193" lon="6.95986">
        <ele>267.864502</ele>
        <time>2012-04-14T13:38:27Z</time>
      </trkpt>
      <trkpt lat="49.07198" lon="6.95996">
        <ele>268.3450928</ele>
        <time>2012-04-14T13:38:42Z</time>
      </trkpt>
      <trkpt lat="49.07204" lon="6.96024">
        <ele>268.3450928</ele>
        <time>2012-04-14T13:39:36Z</time>
      </trkpt>
      <trkpt lat="49.0721" lon="6.96087">
        <ele>270.2677002</ele>
        <time>2012-04-14T13:39:55Z</time>
      </trkpt>
      <trkpt lat="49.07209" lon="6.96092">
        <ele>270.2677002</ele>
        <time>2012-04-14T13:40:04Z</time>
      </trkpt>
      <trkpt lat="49.07208" lon="6.96067">
        <ele>269.3065186</ele>
        <time>2012-04-14T13:40:19Z</time>
      </trkpt>
      <trkpt lat="49.07209" lon="6.96064">
        <ele>268.3450928</ele>
        <time>2012-04-14T13:40:36Z</time>
      </trkpt>
      <trkpt lat="49.07208" lon="6.96065">
        <ele>264.9805908</ele>
        <time>2012-04-14T13:46:47Z</time>
      </trkpt>
      <trkpt lat="49.07208" lon="6.96064">
        <ele>264.0192871</ele>
        <time>2012-04-14T13:53:08Z</time>
      </trkpt>
      <trkpt lat="49.07209" lon="6.96068">
        <ele>266.9031982</ele>
        <time>2012-04-14T13:54:23Z</time>
      </trkpt>
      <trkpt lat="49.0721" lon="6.96068">
        <ele>264.4998779</ele>
        <time>2012-04-14T13:55:09Z</time>
      </trkpt>
      <trkpt lat="49.07209" lon="6.96119">
        <ele>265.4613037</ele>
        <time>2012-04-14T13:55:25Z</time>
      </trkpt>
      <trkpt lat="49.07208" lon="6.96198">
        <ele>266.4224854</ele>
        <time>2012-04-14T13:55:48Z</time>
      </trkpt>
      <trkpt lat="49.07204" lon="6.96267">
        <ele>268.3450928</ele>
        <time>2012-04-14T13:56:04Z</time>
      </trkpt>
      <trkpt lat="49.07198" lon="6.9634">
        <ele>269.3065186</ele>
        <time>2012-04-14T13:56:20Z</time>
      </trkpt>
      <trkpt lat="49.07224" lon="6.96375">
        <ele>268.8258057</ele>
        <time>2012-04-14T13:56:30Z</time>
      </trkpt>
      <trkpt lat="49.0727" lon="6.96437">
        <ele>270.2677002</ele>
        <time>2012-04-14T13:56:47Z</time>
      </trkpt>
      <trkpt lat="49.07412" lon="6.96687">
        <ele>274.1130371</ele>
        <time>2012-04-14T13:57:38Z</time>
      </trkpt>
      <trkpt lat="49.07566" lon="6.96995">
        <ele>276.0356445</ele>
        <time>2012-04-14T13:58:35Z</time>
      </trkpt>
      <trkpt lat="49.07643" lon="6.97162">
        <ele>276.9970703</ele>
        <time>2012-04-14T13:59:03Z</time>
      </trkpt>
      <trkpt lat="49.07681" lon="6.97219">
        <ele>278.9196777</ele>
        <time>2012-04-14T13:59:16Z</time>
      </trkpt>
      <trkpt lat="49.07683" lon="6.97223">
        <ele>277.958252</ele>
        <time>2012-04-14T13:59:42Z</time>
      </trkpt>
      <trkpt lat="49.07685" lon="6.97227">
        <ele>279.4002686</ele>
        <time>2012-04-14T14:00:18Z</time>
      </trkpt>
      <trkpt lat="49.07705" lon="6.9734">
        <ele>276.5163574</ele>
        <time>2012-04-14T14:00:43Z</time>
      </trkpt>
      <trkpt lat="49.07717" lon="6.97347">
        <ele>276.0356445</ele>
        <time>2012-04-14T14:00:47Z</time>
      </trkpt>
      <trkpt lat="49.07726" lon="6.9735">
        <ele>275.5550537</ele>
        <time>2012-04-14T14:00:49Z</time>
      </trkpt>
      <trkpt lat="49.0798" lon="6.97616">
        <ele>264.9805908</ele>
        <time>2012-04-14T14:02:06Z</time>
      </trkpt>
      <trkpt lat="49.07986" lon="6.97624">
        <ele>266.9031982</ele>
        <time>2012-04-14T14:02:33Z</time>
      </trkpt>
      <trkpt lat="49.07988" lon="6.97643">
        <ele>264.0192871</ele>
        <time>2012-04-14T14:02:41Z</time>
      </trkpt>
      <trkpt lat="49.07989" lon="6.97659">
        <ele>262.5771484</ele>
        <time>2012-04-14T14:02:55Z</time>
      </trkpt>
      <trkpt lat="49.07993" lon="6.97676">
        <ele>260.654541</ele>
        <time>2012-04-14T14:03:11Z</time>
      </trkpt>
      <trkpt lat="49.07997" lon="6.97687">
        <ele>260.1739502</ele>
        <time>2012-04-14T14:03:22Z</time>
      </trkpt>
      <trkpt lat="49.07995" lon="6.97725">
        <ele>258.7319336</ele>
        <time>2012-04-14T14:03:37Z</time>
      </trkpt>
      <trkpt lat="49.07993" lon="6.97744">
        <ele>257.770752</ele>
        <time>2012-04-14T14:03:49Z</time>
      </trkpt>
      <trkpt lat="49.07986" lon="6.97783">
        <ele>255.3673096</ele>
        <time>2012-04-14T14:04:46Z</time>
      </trkpt>
      <trkpt lat="49.07986" lon="6.97812">
        <ele>253.4447021</ele>
        <time>2012-04-14T14:04:59Z</time>
      </trkpt>
      <trkpt lat="49.07986" lon="6.97826">
        <ele>254.4060059</ele>
        <time>2012-04-14T14:05:21Z</time>
      </trkpt>
      <trkpt lat="49.07981" lon="6.97844">
        <ele>251.5220947</ele>
        <time>2012-04-14T14:05:32Z</time>
      </trkpt>
      <trkpt lat="49.07979" lon="6.97852">
        <ele>250.560791</ele>
        <time>2012-04-14T14:05:50Z</time>
      </trkpt>
      <trkpt lat="49.07975" lon="6.97863">
        <ele>251.0413818</ele>
        <time>2012-04-14T14:06:00Z</time>
      </trkpt>
      <trkpt lat="49.07969" lon="6.97871">
        <ele>247.6767578</ele>
        <time>2012-04-14T14:06:06Z</time>
      </trkpt>
      <trkpt lat="49.07967" lon="6.97877">
        <ele>247.6767578</ele>
        <time>2012-04-14T14:06:08Z</time>
      </trkpt>
      <trkpt lat="49.07965" lon="6.97887">
        <ele>247.1960449</ele>
        <time>2012-04-14T14:06:32Z</time>
      </trkpt>
      <trkpt lat="49.07948" lon="6.97897">
        <ele>247.1960449</ele>
        <time>2012-04-14T14:07:03Z</time>
      </trkpt>
      <trkpt lat="49.07927" lon="6.97911">
        <ele>247.1960449</ele>
        <time>2012-04-14T14:07:19Z</time>
      </trkpt>
      <trkpt lat="49.07932" lon="6.97913">
        <ele>246.2348633</ele>
        <time>2012-04-14T14:08:01Z</time>
      </trkpt>
      <trkpt lat="49.07934" lon="6.9791">
        <ele>246.7154541</ele>
        <time>2012-04-14T14:09:29Z</time>
      </trkpt>
      <trkpt lat="49.07925" lon="6.97918">
        <ele>248.1575928</ele>
        <time>2012-04-14T14:09:37Z</time>
      </trkpt>
      <trkpt lat="49.07918" lon="6.97918">
        <ele>249.1187744</ele>
        <time>2012-04-14T14:09:41Z</time>
      </trkpt>
      <trkpt lat="49.07895" lon="6.97923">
        <ele>252.0028076</ele>
        <time>2012-04-14T14:09:55Z</time>
      </trkpt>
      <trkpt lat="49.07885" lon="6.97922">
        <ele>253.4447021</ele>
        <time>2012-04-14T14:10:10Z</time>
      </trkpt>
      <trkpt lat="49.07879" lon="6.97919">
        <ele>253.4447021</ele>
        <time>2012-04-14T14:10:19Z</time>
      </trkpt>
      <trkpt lat="49.07861" lon="6.97928">
        <ele>256.8093262</ele>
        <time>2012-04-14T14:10:32Z</time>
      </trkpt>
      <trkpt lat="49.07857" lon="6.97926">
        <ele>257.2900391</ele>
        <time>2012-04-14T14:10:35Z</time>
      </trkpt>
      <trkpt lat="49.07851" lon="6.97909">
        <ele>258.2513428</ele>
        <time>2012-04-14T14:10:46Z</time>
      </trkpt>
      <trkpt lat="49.07844" lon="6.97898">
        <ele>259.2126465</ele>
        <time>2012-04-14T14:10:53Z</time>
      </trkpt>
      <trkpt lat="49.07824" lon="6.97902">
        <ele>262.5771484</ele>
        <time>2012-04-14T14:11:12Z</time>
      </trkpt>
      <trkpt lat="49.07818" lon="6.9791">
        <ele>263.5385742</ele>
        <time>2012-04-14T14:11:24Z</time>
      </trkpt>
      <trkpt lat="49.07812" lon="6.97929">
        <ele>265.9418945</ele>
        <time>2012-04-14T14:11:34Z</time>
      </trkpt>
      <trkpt lat="49.07789" lon="6.97931">
        <ele>269.3065186</ele>
        <time>2012-04-14T14:11:52Z</time>
      </trkpt>
      <trkpt lat="49.0778" lon="6.97928">
        <ele>270.2677002</ele>
        <time>2012-04-14T14:12:00Z</time>
      </trkpt>
      <trkpt lat="49.07764" lon="6.97926">
        <ele>272.6711426</ele>
        <time>2012-04-14T14:12:13Z</time>
      </trkpt>
      <trkpt lat="49.07762" lon="6.97942">
        <ele>272.6711426</ele>
        <time>2012-04-14T14:12:25Z</time>
      </trkpt>
      <trkpt lat="49.07765" lon="6.97951">
        <ele>272.1904297</ele>
        <time>2012-04-14T14:12:30Z</time>
      </trkpt>
      <trkpt lat="49.07768" lon="6.97966">
        <ele>271.229126</ele>
        <time>2012-04-14T14:12:48Z</time>
      </trkpt>
      <trkpt lat="49.07769" lon="6.97968">
        <ele>269.7871094</ele>
        <time>2012-04-14T14:12:50Z</time>
      </trkpt>
      <trkpt lat="49.07778" lon="6.98001">
        <ele>269.3065186</ele>
        <time>2012-04-14T14:13:04Z</time>
      </trkpt>
      <trkpt lat="49.078" lon="6.98016">
        <ele>264.0192871</ele>
        <time>2012-04-14T14:13:15Z</time>
      </trkpt>
      <trkpt lat="49.07815" lon="6.98021">
        <ele>262.5771484</ele>
        <time>2012-04-14T14:13:23Z</time>
      </trkpt>
      <trkpt lat="49.07826" lon="6.98031">
        <ele>260.1739502</ele>
        <time>2012-04-14T14:13:27Z</time>
      </trkpt>
      <trkpt lat="49.07846" lon="6.98039">
        <ele>254.8865967</ele>
        <time>2012-04-14T14:13:32Z</time>
      </trkpt>
      <trkpt lat="49.0785" lon="6.98041">
        <ele>254.8865967</ele>
        <time>2012-04-14T14:13:33Z</time>
      </trkpt>
      <trkpt lat="49.07856" lon="6.98044">
        <ele>253.4447021</ele>
        <time>2012-04-14T14:13:35Z</time>
      </trkpt>
      <trkpt lat="49.07886" lon="6.98059">
        <ele>250.0802002</ele>
        <time>2012-04-14T14:13:45Z</time>
      </trkpt>
      <trkpt lat="49.0791" lon="6.98079">
        <ele>246.7154541</ele>
        <time>2012-04-14T14:13:54Z</time>
      </trkpt>
      <trkpt lat="49.07935" lon="6.98082">
        <ele>245.2734375</ele>
        <time>2012-04-14T14:14:07Z</time>
      </trkpt>
      <trkpt lat="49.07948" lon="6.98085">
        <ele>244.3122559</ele>
        <time>2012-04-14T14:14:20Z</time>
      </trkpt>
      <trkpt lat="49.07952" lon="6.98081">
        <ele>245.7541504</ele>
        <time>2012-04-14T14:15:01Z</time>
      </trkpt>
      <trkpt lat="49.07954" lon="6.98084">
        <ele>243.3508301</ele>
        <time>2012-04-14T14:16:24Z</time>
      </trkpt>
      <trkpt lat="49.07961" lon="6.98088">
        <ele>243.831543</ele>
        <time>2012-04-14T14:25:14Z</time>
      </trkpt>
      <trkpt lat="49.07963" lon="6.98087">
        <ele>243.3508301</ele>
        <time>2012-04-14T14:25:22Z</time>
      </trkpt>
      <trkpt lat="49.07967" lon="6.98098">
        <ele>243.3508301</ele>
        <time>2012-04-14T14:25:26Z</time>
      </trkpt>
      <trkpt lat="49.07965" lon="6.98112">
        <ele>243.831543</ele>
        <time>2012-04-14T14:25:32Z</time>
      </trkpt>
      <trkpt lat="49.07938" lon="6.98154">
        <ele>245.7541504</ele>
        <time>2012-04-14T14:25:53Z</time>
      </trkpt>
      <trkpt lat="49.07934" lon="6.98163">
        <ele>246.2348633</ele>
        <time>2012-04-14T14:26:00Z</time>
      </trkpt>
      <trkpt lat="49.07919" lon="6.98197">
        <ele>250.560791</ele>
        <time>2012-04-14T14:26:18Z</time>
      </trkpt>
      <trkpt lat="49.07897" lon="6.98228">
        <ele>253.4447021</ele>
        <time>2012-04-14T14:26:31Z</time>
      </trkpt>
      <trkpt lat="49.07894" lon="6.98232">
        <ele>254.4060059</ele>
        <time>2012-04-14T14:26:33Z</time>
      </trkpt>
      <trkpt lat="49.07862" lon="6.98275">
        <ele>255.3673096</ele>
        <time>2012-04-14T14:26:52Z</time>
      </trkpt>
      <trkpt lat="49.07829" lon="6.98347">
        <ele>258.7319336</ele>
        <time>2012-04-14T14:29:26Z</time>
      </trkpt>
      <trkpt lat="49.07835" lon="6.98357">
        <ele>256.8093262</ele>
        <time>2012-04-14T14:29:31Z</time>
      </trkpt>
      <trkpt lat="49.07855" lon="6.98409">
        <ele>251.5220947</ele>
        <time>2012-04-14T14:29:49Z</time>
      </trkpt>
      <trkpt lat="49.07857" lon="6.98419">
        <ele>254.8865967</ele>
        <time>2012-04-14T14:31:26Z</time>
      </trkpt>
      <trkpt lat="49.07852" lon="6.98417">
        <ele>257.770752</ele>
        <time>2012-04-14T14:31:34Z</time>
      </trkpt>
      <trkpt lat="49.0785" lon="6.98417">
        <ele>258.7319336</ele>
        <time>2012-04-14T14:31:36Z</time>
      </trkpt>
      <trkpt lat="49.07847" lon="6.98416">
        <ele>259.2126465</ele>
        <time>2012-04-14T14:31:38Z</time>
      </trkpt>
      <trkpt lat="49.07841" lon="6.9841">
        <ele>259.6933594</ele>
        <time>2012-04-14T14:31:42Z</time>
      </trkpt>
      <trkpt lat="49.07838" lon="6.98414">
        <ele>260.1739502</ele>
        <time>2012-04-14T14:31:45Z</time>
      </trkpt>
      <trkpt lat="49.07836" lon="6.98441">
        <ele>259.6933594</ele>
        <time>2012-04-14T14:31:57Z</time>
      </trkpt>
      <trkpt lat="49.07833" lon="6.98446">
        <ele>261.6159668</ele>
        <time>2012-04-14T14:32:01Z</time>
      </trkpt>
      <trkpt lat="49.07828" lon="6.98456">
        <ele>262.5771484</ele>
        <time>2012-04-14T14:32:09Z</time>
      </trkpt>
      <trkpt lat="49.0783" lon="6.98463">
        <ele>261.1352539</ele>
        <time>2012-04-14T14:32:13Z</time>
      </trkpt>
      <trkpt lat="49.07833" lon="6.98467">
        <ele>260.1739502</ele>
        <time>2012-04-14T14:32:15Z</time>
      </trkpt>
      <trkpt lat="49.07847" lon="6.98481">
        <ele>259.2126465</ele>
        <time>2012-04-14T14:32:30Z</time>
      </trkpt>
      <trkpt lat="49.07857" lon="6.98488">
        <ele>258.7319336</ele>
        <time>2012-04-14T14:33:01Z</time>
      </trkpt>
      <trkpt lat="49.07869" lon="6.98496">
        <ele>255.8480225</ele>
        <time>2012-04-14T14:33:07Z</time>
      </trkpt>
      <trkpt lat="49.07879" lon="6.98503">
        <ele>252.9639893</ele>
        <time>2012-04-14T14:33:10Z</time>
      </trkpt>
      <trkpt lat="49.07892" lon="6.98503">
        <ele>250.560791</ele>
        <time>2012-04-14T14:33:14Z</time>
      </trkpt>
      <trkpt lat="49.0792" lon="6.98522">
        <ele>250.0802002</ele>
        <time>2012-04-14T14:33:29Z</time>
      </trkpt>
      <trkpt lat="49.0792" lon="6.98525">
        <ele>250.560791</ele>
        <time>2012-04-14T14:33:30Z</time>
      </trkpt>
      <trkpt lat="49.07915" lon="6.98553">
        <ele>250.560791</ele>
        <time>2012-04-14T14:33:41Z</time>
      </trkpt>
      <trkpt lat="49.0792" lon="6.98565">
        <ele>251.0413818</ele>
        <time>2012-04-14T14:33:47Z</time>
      </trkpt>
      <trkpt lat="49.07925" lon="6.98585">
        <ele>252.0028076</ele>
        <time>2012-04-14T14:33:57Z</time>
      </trkpt>
      <trkpt lat="49.07922" lon="6.98597">
        <ele>252.0028076</ele>
        <time>2012-04-14T14:34:03Z</time>
      </trkpt>
      <trkpt lat="49.07908" lon="6.98644">
        <ele>255.8480225</ele>
        <time>2012-04-14T14:34:24Z</time>
      </trkpt>
      <trkpt lat="49.07899" lon="6.98667">
        <ele>259.2126465</ele>
        <time>2012-04-14T14:34:36Z</time>
      </trkpt>
      <trkpt lat="49.07888" lon="6.98688">
        <ele>262.5771484</ele>
        <time>2012-04-14T14:34:48Z</time>
      </trkpt>
      <trkpt lat="49.07878" lon="6.98716">
        <ele>265.9418945</ele>
        <time>2012-04-14T14:35:04Z</time>
      </trkpt>
      <trkpt lat="49.07876" lon="6.98722">
        <ele>266.4224854</ele>
        <time>2012-04-14T14:35:08Z</time>
      </trkpt>
      <trkpt lat="49.07879" lon="6.98731">
        <ele>266.4224854</ele>
        <time>2012-04-14T14:35:12Z</time>
      </trkpt>
      <trkpt lat="49.07877" lon="6.98755">
        <ele>267.3839111</ele>
        <time>2012-04-14T14:35:26Z</time>
      </trkpt>
      <trkpt lat="49.07873" lon="6.98792">
        <ele>270.7484131</ele>
        <time>2012-04-14T14:35:46Z</time>
      </trkpt>
      <trkpt lat="49.07874" lon="6.98819">
        <ele>272.1904297</ele>
        <time>2012-04-14T14:35:59Z</time>
      </trkpt>
      <trkpt lat="49.07872" lon="6.98828">
        <ele>272.1904297</ele>
        <time>2012-04-14T14:36:20Z</time>
      </trkpt>
      <trkpt lat="49.0788" lon="6.98831">
        <ele>272.1904297</ele>
        <time>2012-04-14T14:37:34Z</time>
      </trkpt>
      <trkpt lat="49.07884" lon="6.98836">
        <ele>272.1904297</ele>
        <time>2012-04-14T14:37:38Z</time>
      </trkpt>
      <trkpt lat="49.07927" lon="6.9889">
        <ele>271.7097168</ele>
        <time>2012-04-14T14:38:00Z</time>
      </trkpt>
      <trkpt lat="49.07977" lon="6.98937">
        <ele>271.229126</ele>
        <time>2012-04-14T14:38:20Z</time>
      </trkpt>
      <trkpt lat="49.08009" lon="6.98957">
        <ele>269.7871094</ele>
        <time>2012-04-14T14:38:38Z</time>
      </trkpt>
      <trkpt lat="49.08041" lon="6.98965">
        <ele>269.3065186</ele>
        <time>2012-04-14T14:38:53Z</time>
      </trkpt>
      <trkpt lat="49.0806" lon="6.98958">
        <ele>269.7871094</ele>
        <time>2012-04-14T14:39:03Z</time>
      </trkpt>
      <trkpt lat="49.0806" lon="6.98958">
        <ele>269.7871094</ele>
        <time>2012-04-14T14:39:03Z</time>
      </trkpt>
      <trkpt lat="49.08065" lon="6.9896">
        <ele>257.1171875</ele>
      </trkpt>
      <trkpt lat="49.08074" lon="6.98958">
        <ele>257.1914063</ele>
      </trkpt>
      <trkpt lat="49.08079" lon="6.98962">
        <ele>257.03125</ele>
      </trkpt>
      <trkpt lat="49.08079" lon="6.98963">
        <ele>257.0078125</ele>
      </trkpt>
      <trkpt lat="49.0808" lon="6.98974">
        <ele>256.5976563</ele>
      </trkpt>
      <trkpt lat="49.08076" lon="6.98986">
        <ele>256.1640625</ele>
      </trkpt>
      <trkpt lat="49.08072" lon="6.9899">
        <ele>256.0351563</ele>
      </trkpt>
      <trkpt lat="49.08075" lon="6.99006">
        <ele>255.4609375</ele>
      </trkpt>
      <trkpt lat="49.08075" lon="6.99005">
        <ele>269.7871094</ele>
        <time>2012-04-14T14:39:25Z</time>
      </trkpt>
      <trkpt lat="49.08095" lon="6.99013">
        <ele>268.3450928</ele>
        <time>2012-04-14T14:39:36Z</time>
      </trkpt>
      <trkpt lat="49.08095" lon="6.99017">
        <ele>268.3450928</ele>
        <time>2012-04-14T14:39:38Z</time>
      </trkpt>
      <trkpt lat="49.08099" lon="6.99026">
        <ele>267.3839111</ele>
        <time>2012-04-14T14:39:41Z</time>
      </trkpt>
      <trkpt lat="49.08105" lon="6.99042">
        <ele>267.3839111</ele>
        <time>2012-04-14T14:39:47Z</time>
      </trkpt>
      <trkpt lat="49.08111" lon="6.99056">
        <ele>265.9418945</ele>
        <time>2012-04-14T14:40:05Z</time>
      </trkpt>
      <trkpt lat="49.08114" lon="6.99064">
        <ele>262.0965576</ele>
        <time>2012-04-14T14:40:09Z</time>
      </trkpt>
      <trkpt lat="49.08114" lon="6.99071">
        <ele>257.770752</ele>
        <time>2012-04-14T14:40:13Z</time>
      </trkpt>
      <trkpt lat="49.08112" lon="6.99094">
        <ele>253.925415</ele>
        <time>2012-04-14T14:40:23Z</time>
      </trkpt>
      <trkpt lat="49.08088" lon="6.991">
        <ele>253.4447021</ele>
        <time>2012-04-14T14:40:28Z</time>
      </trkpt>
      <trkpt lat="49.0808" lon="6.99106">
        <ele>253.4447021</ele>
        <time>2012-04-14T14:40:30Z</time>
      </trkpt>
      <trkpt lat="49.08036" lon="6.99232">
        <ele>252.0028076</ele>
        <time>2012-04-14T14:40:37Z</time>
      </trkpt>
      <trkpt lat="49.08008" lon="6.99269">
        <ele>248.6381836</ele>
        <time>2012-04-14T14:40:44Z</time>
      </trkpt>
      <trkpt lat="49.07993" lon="6.99284">
        <ele>245.7541504</ele>
        <time>2012-04-14T14:40:48Z</time>
      </trkpt>
      <trkpt lat="49.0799" lon="6.993">
        <ele>241.4282227</ele>
        <time>2012-04-14T14:40:52Z</time>
      </trkpt>
      <trkpt lat="49.07939" lon="6.99326">
        <ele>243.831543</ele>
        <time>2012-04-14T14:41:07Z</time>
      </trkpt>
      <trkpt lat="49.07932" lon="6.99327">
        <ele>242.8702393</ele>
        <time>2012-04-14T14:41:10Z</time>
      </trkpt>
      <trkpt lat="49.07935" lon="6.99336">
        <ele>241.9089355</ele>
        <time>2012-04-14T14:41:14Z</time>
      </trkpt>
      <trkpt lat="49.07934" lon="6.99347">
        <ele>241.4282227</ele>
        <time>2012-04-14T14:41:19Z</time>
      </trkpt>
      <trkpt lat="49.07925" lon="6.9936">
        <ele>241.9089355</ele>
        <time>2012-04-14T14:41:27Z</time>
      </trkpt>
      <trkpt lat="49.0789" lon="6.9937">
        <ele>245.2734375</ele>
        <time>2012-04-14T14:41:45Z</time>
      </trkpt>
      <trkpt lat="49.07875" lon="6.99366">
        <ele>245.7541504</ele>
        <time>2012-04-14T14:41:52Z</time>
      </trkpt>
      <trkpt lat="49.07841" lon="6.99382">
        <ele>249.5994873</ele>
        <time>2012-04-14T14:42:12Z</time>
      </trkpt>
      <trkpt lat="49.07821" lon="6.99383">
        <ele>252.0028076</ele>
        <time>2012-04-14T14:42:26Z</time>
      </trkpt>
      <trkpt lat="49.07818" lon="6.99381">
        <ele>253.4447021</ele>
        <time>2012-04-14T14:42:29Z</time>
      </trkpt>
      <trkpt lat="49.07816" lon="6.99379">
        <ele>253.925415</ele>
        <time>2012-04-14T14:42:32Z</time>
      </trkpt>
      <trkpt lat="49.07804" lon="6.99379">
        <ele>257.770752</ele>
        <time>2012-04-14T14:42:41Z</time>
      </trkpt>
      <trkpt lat="49.07802" lon="6.9938">
        <ele>257.770752</ele>
        <time>2012-04-14T14:42:43Z</time>
      </trkpt>
      <trkpt lat="49.07779" lon="6.99378">
        <ele>260.654541</ele>
        <time>2012-04-14T14:43:02Z</time>
      </trkpt>
      <trkpt lat="49.07768" lon="6.99385">
        <ele>262.0965576</ele>
        <time>2012-04-14T14:43:17Z</time>
      </trkpt>
      <trkpt lat="49.07768" lon="6.99388">
        <ele>261.1352539</ele>
        <time>2012-04-14T14:45:04Z</time>
      </trkpt>
      <trkpt lat="49.0777" lon="6.99387">
        <ele>261.1352539</ele>
        <time>2012-04-14T14:45:13Z</time>
      </trkpt>
      <trkpt lat="49.07781" lon="6.99398">
        <ele>260.654541</ele>
        <time>2012-04-14T14:45:23Z</time>
      </trkpt>
      <trkpt lat="49.07779" lon="6.99409">
        <ele>257.770752</ele>
        <time>2012-04-14T14:46:00Z</time>
      </trkpt>
      <trkpt lat="49.0778" lon="6.9941">
        <ele>258.7319336</ele>
        <time>2012-04-14T14:46:01Z</time>
      </trkpt>
      <trkpt lat="49.0778" lon="6.99418">
        <ele>259.2126465</ele>
        <time>2012-04-14T14:46:24Z</time>
      </trkpt>
      <trkpt lat="49.07767" lon="6.99413">
        <ele>261.1352539</ele>
        <time>2012-04-14T14:47:03Z</time>
      </trkpt>
      <trkpt lat="49.07741" lon="6.99417">
        <ele>260.654541</ele>
        <time>2012-04-14T14:47:20Z</time>
      </trkpt>
      <trkpt lat="49.07733" lon="6.99419">
        <ele>257.770752</ele>
        <time>2012-04-14T14:47:26Z</time>
      </trkpt>
      <trkpt lat="49.07729" lon="6.99428">
        <ele>256.3287354</ele>
        <time>2012-04-14T14:47:46Z</time>
      </trkpt>
      <trkpt lat="49.07728" lon="6.99432">
        <ele>255.3673096</ele>
        <time>2012-04-14T14:47:58Z</time>
      </trkpt>
      <trkpt lat="49.07716" lon="6.99438">
        <ele>251.0413818</ele>
        <time>2012-04-14T14:48:03Z</time>
      </trkpt>
      <trkpt lat="49.07706" lon="6.99446">
        <ele>249.5994873</ele>
        <time>2012-04-14T14:48:06Z</time>
      </trkpt>
      <trkpt lat="49.07698" lon="6.99455">
        <ele>249.1187744</ele>
        <time>2012-04-14T14:48:15Z</time>
      </trkpt>
      <trkpt lat="49.07692" lon="6.99459">
        <ele>248.1575928</ele>
        <time>2012-04-14T14:49:13Z</time>
      </trkpt>
      <trkpt lat="49.0769" lon="6.99461">
        <ele>248.1575928</ele>
        <time>2012-04-14T14:49:15Z</time>
      </trkpt>
      <trkpt lat="49.07695" lon="6.99511">
        <ele>245.2734375</ele>
        <time>2012-04-14T14:49:29Z</time>
      </trkpt>
      <trkpt lat="49.07713" lon="6.99615">
        <ele>246.7154541</ele>
        <time>2012-04-14T14:49:49Z</time>
      </trkpt>
      <trkpt lat="49.0772" lon="6.99653">
        <ele>247.1960449</ele>
        <time>2012-04-14T14:49:56Z</time>
      </trkpt>
      <trkpt lat="49.07734" lon="6.99706">
        <ele>250.560791</ele>
        <time>2012-04-14T14:50:08Z</time>
      </trkpt>
      <trkpt lat="49.07751" lon="6.99768">
        <ele>253.4447021</ele>
        <time>2012-04-14T14:50:23Z</time>
      </trkpt>
      <trkpt lat="49.07761" lon="6.99797">
        <ele>255.3673096</ele>
        <time>2012-04-14T14:50:32Z</time>
      </trkpt>
      <trkpt lat="49.07761" lon="6.99797">
        <ele>256.8093262</ele>
        <time>2012-04-14T14:50:34Z</time>
      </trkpt>
      <trkpt lat="49.07768" lon="6.99819">
        <ele>254.4060059</ele>
        <time>2012-04-14T14:51:14Z</time>
      </trkpt>
      <trkpt lat="49.07778" lon="6.99851">
        <ele>256.3287354</ele>
        <time>2012-04-14T14:51:22Z</time>
      </trkpt>
      <trkpt lat="49.07781" lon="6.99857">
        <ele>256.3287354</ele>
        <time>2012-04-14T14:51:34Z</time>
      </trkpt>
      <trkpt lat="49.07785" lon="6.99869">
        <ele>255.8480225</ele>
        <time>2012-04-14T14:51:39Z</time>
      </trkpt>
      <trkpt lat="49.07785" lon="6.99873">
        <ele>255.8480225</ele>
        <time>2012-04-14T14:51:56Z</time>
      </trkpt>
      <trkpt lat="49.07786" lon="6.99873">
        <ele>256.3287354</ele>
        <time>2012-04-14T14:52:19Z</time>
      </trkpt>
      <trkpt lat="49.07777" lon="6.99883">
        <ele>255.3673096</ele>
        <time>2012-04-14T14:52:23Z</time>
      </trkpt>
      <trkpt lat="49.07774" lon="6.99886">
        <ele>254.8865967</ele>
        <time>2012-04-14T14:52:25Z</time>
      </trkpt>
      <trkpt lat="49.07775" lon="6.99889">
        <ele>252.4833984</ele>
        <time>2012-04-14T14:52:38Z</time>
      </trkpt>
      <trkpt lat="49.07776" lon="6.9989">
        <ele>254.4060059</ele>
        <time>2012-04-14T14:52:59Z</time>
      </trkpt>
      <trkpt lat="49.07744" lon="6.99895">
        <ele>251.5220947</ele>
        <time>2012-04-14T14:53:12Z</time>
      </trkpt>
      <trkpt lat="49.07738" lon="6.99895">
        <ele>251.5220947</ele>
        <time>2012-04-14T14:53:24Z</time>
      </trkpt>
      <trkpt lat="49.07737" lon="6.99895">
        <ele>252.0028076</ele>
        <time>2012-04-14T14:53:47Z</time>
      </trkpt>
      <trkpt lat="49.07727" lon="6.99895">
        <ele>251.0413818</ele>
        <time>2012-04-14T14:54:00Z</time>
      </trkpt>
      <trkpt lat="49.07709" lon="6.99898">
        <ele>248.1575928</ele>
        <time>2012-04-14T14:54:14Z</time>
      </trkpt>
      <trkpt lat="49.07683" lon="6.99902">
        <ele>244.7928467</ele>
        <time>2012-04-14T14:54:34Z</time>
      </trkpt>
      <trkpt lat="49.07657" lon="6.99904">
        <ele>241.9089355</ele>
        <time>2012-04-14T14:54:54Z</time>
      </trkpt>
      <trkpt lat="49.07656" lon="6.99905">
        <ele>240.467041</ele>
        <time>2012-04-14T14:55:15Z</time>
      </trkpt>
      <trkpt lat="49.07635" lon="6.99909">
        <ele>239.0249023</ele>
        <time>2012-04-14T14:55:39Z</time>
      </trkpt>
      <trkpt lat="49.0761" lon="6.99913">
        <ele>236.6217041</ele>
        <time>2012-04-14T14:55:44Z</time>
      </trkpt>
      <trkpt lat="49.07597" lon="6.99914">
        <ele>235.1796875</ele>
        <time>2012-04-14T14:55:46Z</time>
      </trkpt>
      <trkpt lat="49.07555" lon="6.99911">
        <ele>234.2183838</ele>
        <time>2012-04-14T14:55:58Z</time>
      </trkpt>
      <trkpt lat="49.07553" lon="6.99912">
        <ele>233.7376709</ele>
        <time>2012-04-14T14:56:12Z</time>
      </trkpt>
      <trkpt lat="49.07553" lon="6.99914">
        <ele>233.2570801</ele>
        <time>2012-04-14T14:56:15Z</time>
      </trkpt>
      <trkpt lat="49.07552" lon="6.99923">
        <ele>233.2570801</ele>
        <time>2012-04-14T14:56:19Z</time>
      </trkpt>
      <trkpt lat="49.07553" lon="6.9997">
        <ele>230.8537598</ele>
        <time>2012-04-14T14:56:33Z</time>
      </trkpt>
      <trkpt lat="49.07552" lon="7">
        <ele>232.7764893</ele>
        <time>2012-04-14T14:56:46Z</time>
      </trkpt>
      <trkpt lat="49.07551" lon="6.99997">
        <ele>232.7764893</ele>
        <time>2012-04-14T14:57:00Z</time>
      </trkpt>
      <trkpt lat="49.07551" lon="6.99997">
        <ele>232.2957764</ele>
        <time>2012-04-14T14:57:02Z</time>
      </trkpt>
      <trkpt lat="49.07547" lon="7.00002">
        <ele>232.7764893</ele>
        <time>2012-04-14T14:57:17Z</time>
      </trkpt>
      <trkpt lat="49.07543" lon="7.00005">
        <ele>232.2957764</ele>
        <time>2012-04-14T14:58:02Z</time>
      </trkpt>
      <trkpt lat="49.07543" lon="7.00007">
        <ele>231.8149414</ele>
        <time>2012-04-14T14:58:17Z</time>
      </trkpt>
      <trkpt lat="49.07541" lon="7.00006">
        <ele>231.8149414</ele>
        <time>2012-04-14T14:58:18Z</time>
      </trkpt>
      <trkpt lat="49.0753" lon="7.00013">
        <ele>229.892334</ele>
        <time>2012-04-14T14:58:23Z</time>
      </trkpt>
      <trkpt lat="49.07491" lon="7.00016">
        <ele>230.3730469</ele>
        <time>2012-04-14T14:58:38Z</time>
      </trkpt>
      <trkpt lat="49.07488" lon="7.00015">
        <ele>229.892334</ele>
        <time>2012-04-14T14:58:50Z</time>
      </trkpt>
      <trkpt lat="49.07481" lon="6.99972">
        <ele>230.8537598</ele>
        <time>2012-04-14T14:59:03Z</time>
      </trkpt>
      <trkpt lat="49.07478" lon="6.99966">
        <ele>230.8537598</ele>
        <time>2012-04-14T14:59:15Z</time>
      </trkpt>
      <trkpt lat="49.07477" lon="6.99965">
        <ele>230.8537598</ele>
        <time>2012-04-14T14:59:25Z</time>
      </trkpt>
      <trkpt lat="49.07469" lon="6.99966">
        <ele>230.8537598</ele>
        <time>2012-04-14T14:59:30Z</time>
      </trkpt>
      <trkpt lat="49.07441" lon="6.99977">
        <ele>230.8537598</ele>
        <time>2012-04-14T14:59:44Z</time>
      </trkpt>
      <trkpt lat="49.07399" lon="6.99965">
        <ele>230.3730469</ele>
        <time>2012-04-14T15:00:05Z</time>
      </trkpt>
      <trkpt lat="49.07396" lon="6.99962">
        <ele>230.3730469</ele>
        <time>2012-04-14T15:00:07Z</time>
      </trkpt>
      <trkpt lat="49.07387" lon="6.99966">
        <ele>232.2957764</ele>
        <time>2012-04-14T15:00:12Z</time>
      </trkpt>
      <trkpt lat="49.07344" lon="6.9996">
        <ele>234.2183838</ele>
        <time>2012-04-14T15:00:33Z</time>
      </trkpt>
      <trkpt lat="49.07338" lon="6.99957">
        <ele>234.6990967</ele>
        <time>2012-04-14T15:00:37Z</time>
      </trkpt>
      <trkpt lat="49.07341" lon="6.99949">
        <ele>233.7376709</ele>
        <time>2012-04-14T15:00:44Z</time>
      </trkpt>
      <trkpt lat="49.07346" lon="6.99949">
        <ele>231.8149414</ele>
        <time>2012-04-14T15:00:47Z</time>
      </trkpt>
      <trkpt lat="49.07349" lon="6.99947">
        <ele>229.892334</ele>
        <time>2012-04-14T15:00:49Z</time>
      </trkpt>
      <trkpt lat="49.07352" lon="6.99937">
        <ele>230.8537598</ele>
        <time>2012-04-14T15:01:00Z</time>
      </trkpt>
      <trkpt lat="49.07354" lon="6.99906">
        <ele>230.3730469</ele>
        <time>2012-04-14T15:01:19Z</time>
      </trkpt>
      <trkpt lat="49.07359" lon="6.9985">
        <ele>230.8537598</ele>
        <time>2012-04-14T15:01:30Z</time>
      </trkpt>
      <trkpt lat="49.07361" lon="6.99858">
        <ele>229.892334</ele>
        <time>2012-04-14T15:01:35Z</time>
      </trkpt>
      <trkpt lat="49.07355" lon="6.99935">
        <ele>229.4117432</ele>
        <time>2012-04-14T15:01:49Z</time>
      </trkpt>
      <trkpt lat="49.07367" lon="6.99944">
        <ele>227.9697266</ele>
        <time>2012-04-14T15:01:53Z</time>
      </trkpt>
      <trkpt lat="49.07451" lon="6.99959">
        <ele>229.4117432</ele>
        <time>2012-04-14T15:02:17Z</time>
      </trkpt>
      <trkpt lat="49.07458" lon="6.99934">
        <ele>229.892334</ele>
        <time>2012-04-14T15:02:24Z</time>
      </trkpt>
      <trkpt lat="49.07461" lon="6.999">
        <ele>221</ele>
      </trkpt>
    </trkseg>
  </trk>
</gpx>